sensor_id;sensor_type;location;lat;lon;timestamp;P1;durP1;ratioP1;P2;durP2;ratioP2
56116;SDS011;41989;45.356;20.392;2023-06-19T00:01:25;9.82;;;7.80;;
56116;SDS011;41989;45.356;20.392;2023-06-19T00:03:51;13.20;;;7.80;;
56116;SDS011;41989;45.356;20.392;2023-06-19T00:06:17;9.30;;;7.57;;
56116;SDS011;41989;45.356;20.392;2023-06-19T00:08:43;11.45;;;8.02;;
56116;SDS011;41989;45.356;20.392;2023-06-19T00:11:09;9.63;;;7.57;;
56116;SDS011;41989;45.356;20.392;2023-06-19T00:13:35;9.95;;;7.88;;
56116;SDS011;41989;45.356;20.392;2023-06-19T00:16:02;10.40;;;8.55;;
56116;SDS011;41989;45.356;20.392;2023-06-19T00:18:28;10.65;;;7.72;;
56116;SDS011;41989;45.356;20.392;2023-06-19T00:20:54;11.30;;;8.63;;
56116;SDS011;41989;45.356;20.392;2023-06-19T00:23:21;8.88;;;7.85;;
56116;SDS011;41989;45.356;20.392;2023-06-19T00:25:48;11.93;;;7.50;;
56116;SDS011;41989;45.356;20.392;2023-06-19T00:28:14;10.77;;;7.75;;
56116;SDS011;41989;45.356;20.392;2023-06-19T00:30:44;10.77;;;8.10;;
56116;SDS011;41989;45.356;20.392;2023-06-19T00:33:10;11.32;;;8.55;;
56116;SDS011;41989;45.356;20.392;2023-06-19T00:35:39;10.40;;;8.35;;
56116;SDS011;41989;45.356;20.392;2023-06-19T00:38:07;10.00;;;8.68;;
56116;SDS011;41989;45.356;20.392;2023-06-19T00:40:34;9.15;;;7.80;;
56116;SDS011;41989;45.356;20.392;2023-06-19T00:43:00;10.90;;;8.40;;
56116;SDS011;41989;45.356;20.392;2023-06-19T00:45:27;10.82;;;8.07;;
56116;SDS011;41989;45.356;20.392;2023-06-19T00:47:53;11.57;;;8.18;;
56116;SDS011;41989;45.356;20.392;2023-06-19T00:50:20;10.23;;;8.63;;
56116;SDS011;41989;45.356;20.392;2023-06-19T00:52:49;9.57;;;7.97;;
56116;SDS011;41989;45.356;20.392;2023-06-19T00:55:16;11.65;;;7.18;;
56116;SDS011;41989;45.356;20.392;2023-06-19T00:57:43;11.23;;;7.35;;
56116;SDS011;41989;45.356;20.392;2023-06-19T01:00:11;12.05;;;8.48;;
56116;SDS011;41989;45.356;20.392;2023-06-19T01:02:38;11.98;;;8.10;;
56116;SDS011;41989;45.356;20.392;2023-06-19T01:05:04;9.88;;;8.35;;
56116;SDS011;41989;45.356;20.392;2023-06-19T01:09:58;12.63;;;8.27;;
56116;SDS011;41989;45.356;20.392;2023-06-19T01:12:30;10.45;;;8.15;;
56116;SDS011;41989;45.356;20.392;2023-06-19T01:14:57;12.45;;;9.05;;
56116;SDS011;41989;45.356;20.392;2023-06-19T01:17:27;11.07;;;8.40;;
56116;SDS011;41989;45.356;20.392;2023-06-19T01:19:54;11.02;;;8.82;;
56116;SDS011;41989;45.356;20.392;2023-06-19T01:22:30;13.18;;;9.18;;
56116;SDS011;41989;45.356;20.392;2023-06-19T01:24:57;10.57;;;9.13;;
56116;SDS011;41989;45.356;20.392;2023-06-19T01:27:23;16.30;;;9.13;;
56116;SDS011;41989;45.356;20.392;2023-06-19T01:29:51;14.15;;;9.23;;
56116;SDS011;41989;45.356;20.392;2023-06-19T01:32:22;13.45;;;9.75;;
56116;SDS011;41989;45.356;20.392;2023-06-19T01:37:16;16.30;;;10.57;;
56116;SDS011;41989;45.356;20.392;2023-06-19T01:39:52;12.07;;;10.18;;
56116;SDS011;41989;45.356;20.392;2023-06-19T01:42:18;14.18;;;10.60;;
56116;SDS011;41989;45.356;20.392;2023-06-19T01:44:44;14.20;;;12.52;;
56116;SDS011;41989;45.356;20.392;2023-06-19T01:47:11;16.02;;;14.15;;
56116;SDS011;41989;45.356;20.392;2023-06-19T01:49:37;21.23;;;15.60;;
56116;SDS011;41989;45.356;20.392;2023-06-19T01:52:04;18.90;;;16.20;;
56116;SDS011;41989;45.356;20.392;2023-06-19T01:54:30;19.48;;;13.18;;
56116;SDS011;41989;45.356;20.392;2023-06-19T01:56:57;14.23;;;11.45;;
56116;SDS011;41989;45.356;20.392;2023-06-19T01:59:23;14.68;;;11.18;;
56116;SDS011;41989;45.356;20.392;2023-06-19T02:01:49;14.90;;;11.60;;
56116;SDS011;41989;45.356;20.392;2023-06-19T02:04:15;15.75;;;10.40;;
56116;SDS011;41989;45.356;20.392;2023-06-19T02:06:41;16.52;;;10.82;;
56116;SDS011;41989;45.356;20.392;2023-06-19T02:09:07;12.70;;;10.43;;
56116;SDS011;41989;45.356;20.392;2023-06-19T02:11:33;13.65;;;10.30;;
56116;SDS011;41989;45.356;20.392;2023-06-19T02:13:59;16.00;;;11.23;;
56116;SDS011;41989;45.356;20.392;2023-06-19T02:16:26;13.85;;;11.52;;
56116;SDS011;41989;45.356;20.392;2023-06-19T02:18:52;14.95;;;12.30;;
56116;SDS011;41989;45.356;20.392;2023-06-19T02:21:18;14.90;;;12.75;;
56116;SDS011;41989;45.356;20.392;2023-06-19T02:23:44;16.40;;;11.05;;
56116;SDS011;41989;45.356;20.392;2023-06-19T02:26:10;13.50;;;11.13;;
56116;SDS011;41989;45.356;20.392;2023-06-19T02:28:36;15.02;;;12.55;;
56116;SDS011;41989;45.356;20.392;2023-06-19T02:31:02;14.75;;;11.98;;
56116;SDS011;41989;45.356;20.392;2023-06-19T02:33:28;16.38;;;12.07;;
56116;SDS011;41989;45.356;20.392;2023-06-19T02:35:55;16.10;;;12.30;;
56116;SDS011;41989;45.356;20.392;2023-06-19T02:51:41;14.55;;;11.35;;
56116;SDS011;41989;45.356;20.392;2023-06-19T02:54:07;16.38;;;11.48;;
56116;SDS011;41989;45.356;20.392;2023-06-19T02:56:33;15.43;;;10.65;;
56116;SDS011;41989;45.356;20.392;2023-06-19T02:58:59;15.15;;;11.35;;
56116;SDS011;41989;45.356;20.392;2023-06-19T03:01:25;14.68;;;11.45;;
56116;SDS011;41989;45.356;20.392;2023-06-19T03:03:51;14.25;;;11.68;;
56116;SDS011;41989;45.356;20.392;2023-06-19T03:06:17;16.60;;;11.93;;
56116;SDS011;41989;45.356;20.392;2023-06-19T03:08:43;16.15;;;12.30;;
56116;SDS011;41989;45.356;20.392;2023-06-19T03:11:14;19.45;;;11.30;;
56116;SDS011;41989;45.356;20.392;2023-06-19T03:13:47;16.35;;;11.57;;
56116;SDS011;41989;45.356;20.392;2023-06-19T03:16:14;12.95;;;11.02;;
56116;SDS011;41989;45.356;20.392;2023-06-19T03:18:43;17.95;;;11.40;;
56116;SDS011;41989;45.356;20.392;2023-06-19T03:21:14;16.17;;;12.15;;
56116;SDS011;41989;45.356;20.392;2023-06-19T03:23:41;16.98;;;11.65;;
56116;SDS011;41989;45.356;20.392;2023-06-19T03:26:07;18.30;;;12.60;;
56116;SDS011;41989;45.356;20.392;2023-06-19T03:28:34;20.55;;;13.38;;
56116;SDS011;41989;45.356;20.392;2023-06-19T03:31:00;20.48;;;12.02;;
56116;SDS011;41989;45.356;20.392;2023-06-19T03:33:26;19.90;;;14.15;;
56116;SDS011;41989;45.356;20.392;2023-06-19T03:35:52;18.52;;;12.77;;
56116;SDS011;41989;45.356;20.392;2023-06-19T03:38:18;17.40;;;12.93;;
56116;SDS011;41989;45.356;20.392;2023-06-19T03:40:44;16.10;;;12.27;;
56116;SDS011;41989;45.356;20.392;2023-06-19T03:43:10;17.83;;;12.13;;
56116;SDS011;41989;45.356;20.392;2023-06-19T03:45:37;19.10;;;13.73;;
56116;SDS011;41989;45.356;20.392;2023-06-19T03:48:03;25.10;;;14.05;;
56116;SDS011;41989;45.356;20.392;2023-06-19T03:50:29;20.42;;;14.88;;
56116;SDS011;41989;45.356;20.392;2023-06-19T03:52:55;23.42;;;14.52;;
56116;SDS011;41989;45.356;20.392;2023-06-19T03:55:21;22.10;;;14.13;;
56116;SDS011;41989;45.356;20.392;2023-06-19T03:57:47;21.92;;;13.77;;
56116;SDS011;41989;45.356;20.392;2023-06-19T04:00:14;24.27;;;14.32;;
56116;SDS011;41989;45.356;20.392;2023-06-19T04:02:40;22.83;;;14.73;;
56116;SDS011;41989;45.356;20.392;2023-06-19T04:05:06;20.30;;;14.68;;
56116;SDS011;41989;45.356;20.392;2023-06-19T04:07:33;19.13;;;14.55;;
56116;SDS011;41989;45.356;20.392;2023-06-19T04:09:59;23.83;;;14.90;;
56116;SDS011;41989;45.356;20.392;2023-06-19T04:12:25;20.65;;;14.07;;
56116;SDS011;41989;45.356;20.392;2023-06-19T04:14:51;21.95;;;15.00;;
56116;SDS011;41989;45.356;20.392;2023-06-19T04:17:17;19.52;;;13.23;;
56116;SDS011;41989;45.356;20.392;2023-06-19T04:19:43;19.13;;;14.57;;
56116;SDS011;41989;45.356;20.392;2023-06-19T04:22:09;16.23;;;13.90;;
56116;SDS011;41989;45.356;20.392;2023-06-19T04:24:38;15.32;;;13.60;;
56116;SDS011;41989;45.356;20.392;2023-06-19T04:27:04;18.00;;;14.27;;
56116;SDS011;41989;45.356;20.392;2023-06-19T04:29:30;18.48;;;14.43;;
56116;SDS011;41989;45.356;20.392;2023-06-19T04:32:00;16.70;;;14.23;;
56116;SDS011;41989;45.356;20.392;2023-06-19T04:34:28;18.77;;;13.57;;
56116;SDS011;41989;45.356;20.392;2023-06-19T04:36:54;23.50;;;13.93;;
56116;SDS011;41989;45.356;20.392;2023-06-19T04:39:23;15.13;;;12.52;;
56116;SDS011;41989;45.356;20.392;2023-06-19T04:41:50;17.25;;;12.32;;
56116;SDS011;41989;45.356;20.392;2023-06-19T04:44:16;18.20;;;11.73;;
56116;SDS011;41989;45.356;20.392;2023-06-19T04:46:42;12.65;;;11.20;;
56116;SDS011;41989;45.356;20.392;2023-06-19T04:49:11;13.37;;;10.60;;
56116;SDS011;41989;45.356;20.392;2023-06-19T04:51:38;11.52;;;9.95;;
56116;SDS011;41989;45.356;20.392;2023-06-19T04:54:04;14.98;;;10.43;;
56116;SDS011;41989;45.356;20.392;2023-06-19T04:56:30;19.23;;;10.38;;
56116;SDS011;41989;45.356;20.392;2023-06-19T04:58:57;14.63;;;11.52;;
56116;SDS011;41989;45.356;20.392;2023-06-19T05:01:25;16.55;;;11.65;;
56116;SDS011;41989;45.356;20.392;2023-06-19T05:03:55;16.75;;;11.50;;
56116;SDS011;41989;45.356;20.392;2023-06-19T05:06:24;19.02;;;11.27;;
56116;SDS011;41989;45.356;20.392;2023-06-19T05:08:51;16.00;;;10.60;;
56116;SDS011;41989;45.356;20.392;2023-06-19T05:11:20;12.85;;;9.70;;
56116;SDS011;41989;45.356;20.392;2023-06-19T05:13:46;16.13;;;11.45;;
56116;SDS011;41989;45.356;20.392;2023-06-19T05:16:12;14.93;;;10.35;;
56116;SDS011;41989;45.356;20.392;2023-06-19T05:18:41;17.85;;;11.75;;
56116;SDS011;41989;45.356;20.392;2023-06-19T05:21:08;21.92;;;10.73;;
56116;SDS011;41989;45.356;20.392;2023-06-19T05:23:35;17.27;;;11.45;;
56116;SDS011;41989;45.356;20.392;2023-06-19T05:26:01;16.60;;;11.80;;
56116;SDS011;41989;45.356;20.392;2023-06-19T05:28:27;17.23;;;10.77;;
56116;SDS011;41989;45.356;20.392;2023-06-19T05:30:53;18.80;;;14.25;;
56116;SDS011;41989;45.356;20.392;2023-06-19T05:33:19;17.33;;;11.32;;
56116;SDS011;41989;45.356;20.392;2023-06-19T05:35:48;23.33;;;10.03;;
56116;SDS011;41989;45.356;20.392;2023-06-19T05:38:18;11.30;;;9.27;;
56116;SDS011;41989;45.356;20.392;2023-06-19T05:40:44;15.18;;;10.38;;
56116;SDS011;41989;45.356;20.392;2023-06-19T05:43:10;19.90;;;10.00;;
56116;SDS011;41989;45.356;20.392;2023-06-19T05:45:36;13.63;;;10.00;;
56116;SDS011;41989;45.356;20.392;2023-06-19T05:48:02;13.07;;;9.52;;
56116;SDS011;41989;45.356;20.392;2023-06-19T05:50:28;16.50;;;10.23;;
56116;SDS011;41989;45.356;20.392;2023-06-19T05:52:55;14.30;;;10.55;;
56116;SDS011;41989;45.356;20.392;2023-06-19T05:55:22;13.40;;;9.55;;
56116;SDS011;41989;45.356;20.392;2023-06-19T05:57:50;15.20;;;8.45;;
56116;SDS011;41989;45.356;20.392;2023-06-19T06:00:16;14.48;;;8.77;;
56116;SDS011;41989;45.356;20.392;2023-06-19T06:02:42;12.50;;;7.90;;
56116;SDS011;41989;45.356;20.392;2023-06-19T06:05:08;11.38;;;6.82;;
56116;SDS011;41989;45.356;20.392;2023-06-19T06:07:35;8.90;;;7.15;;
56116;SDS011;41989;45.356;20.392;2023-06-19T06:10:01;9.80;;;7.22;;
56116;SDS011;41989;45.356;20.392;2023-06-19T06:12:27;10.65;;;7.38;;
56116;SDS011;41989;45.356;20.392;2023-06-19T06:14:53;8.65;;;6.22;;
56116;SDS011;41989;45.356;20.392;2023-06-19T06:17:19;7.65;;;6.88;;
56116;SDS011;41989;45.356;20.392;2023-06-19T06:19:45;9.15;;;7.15;;
56116;SDS011;41989;45.356;20.392;2023-06-19T06:22:11;11.20;;;7.57;;
56116;SDS011;41989;45.356;20.392;2023-06-19T06:24:38;13.05;;;7.30;;
56116;SDS011;41989;45.356;20.392;2023-06-19T06:27:04;8.85;;;6.93;;
56116;SDS011;41989;45.356;20.392;2023-06-19T06:29:30;8.38;;;6.90;;
56116;SDS011;41989;45.356;20.392;2023-06-19T06:32:03;14.85;;;7.28;;
56116;SDS011;41989;45.356;20.392;2023-06-19T06:34:30;11.70;;;7.40;;
56116;SDS011;41989;45.356;20.392;2023-06-19T06:36:57;10.35;;;7.07;;
56116;SDS011;41989;45.356;20.392;2023-06-19T06:39:23;7.50;;;6.68;;
56116;SDS011;41989;45.356;20.392;2023-06-19T06:41:50;9.35;;;6.90;;
56116;SDS011;41989;45.356;20.392;2023-06-19T06:44:16;12.23;;;7.28;;
56116;SDS011;41989;45.356;20.392;2023-06-19T06:46:42;11.15;;;6.43;;
56116;SDS011;41989;45.356;20.392;2023-06-19T06:49:08;8.50;;;6.55;;
56116;SDS011;41989;45.356;20.392;2023-06-19T06:51:34;10.90;;;6.55;;
56116;SDS011;41989;45.356;20.392;2023-06-19T06:54:00;8.98;;;6.47;;
56116;SDS011;41989;45.356;20.392;2023-06-19T06:56:26;11.55;;;6.72;;
56116;SDS011;41989;45.356;20.392;2023-06-19T06:58:52;9.57;;;6.25;;
56116;SDS011;41989;45.356;20.392;2023-06-19T07:01:19;9.23;;;6.75;;
56116;SDS011;41989;45.356;20.392;2023-06-19T07:03:47;12.23;;;6.20;;
56116;SDS011;41989;45.356;20.392;2023-06-19T07:06:13;7.63;;;5.97;;
56116;SDS011;41989;45.356;20.392;2023-06-19T07:08:39;8.38;;;6.80;;
56116;SDS011;41989;45.356;20.392;2023-06-19T07:11:06;7.43;;;6.38;;
56116;SDS011;41989;45.356;20.392;2023-06-19T07:13:32;8.45;;;5.82;;
56116;SDS011;41989;45.356;20.392;2023-06-19T07:15:58;9.95;;;5.60;;
56116;SDS011;41989;45.356;20.392;2023-06-19T07:18:26;7.32;;;5.15;;
56116;SDS011;41989;45.356;20.392;2023-06-19T07:20:52;6.20;;;5.18;;
56116;SDS011;41989;45.356;20.392;2023-06-19T07:23:19;8.95;;;5.22;;
56116;SDS011;41989;45.356;20.392;2023-06-19T07:25:45;7.78;;;5.10;;
56116;SDS011;41989;45.356;20.392;2023-06-19T07:28:12;8.25;;;5.40;;
56116;SDS011;41989;45.356;20.392;2023-06-19T07:30:38;7.53;;;5.30;;
56116;SDS011;41989;45.356;20.392;2023-06-19T07:33:05;7.60;;;5.50;;
56116;SDS011;41989;45.356;20.392;2023-06-19T07:35:31;6.72;;;5.40;;
56116;SDS011;41989;45.356;20.392;2023-06-19T07:37:57;8.52;;;5.57;;
56116;SDS011;41989;45.356;20.392;2023-06-19T07:40:23;6.00;;;5.25;;
56116;SDS011;41989;45.356;20.392;2023-06-19T07:42:49;9.40;;;5.05;;
56116;SDS011;41989;45.356;20.392;2023-06-19T07:45:15;6.65;;;5.00;;
56116;SDS011;41989;45.356;20.392;2023-06-19T07:47:41;10.40;;;5.53;;
56116;SDS011;41989;45.356;20.392;2023-06-19T07:50:07;11.65;;;5.45;;
56116;SDS011;41989;45.356;20.392;2023-06-19T07:52:34;9.60;;;5.20;;
56116;SDS011;41989;45.356;20.392;2023-06-19T07:55:05;7.15;;;5.60;;
56116;SDS011;41989;45.356;20.392;2023-06-19T07:57:31;7.25;;;5.00;;
56116;SDS011;41989;45.356;20.392;2023-06-19T07:59:57;7.35;;;5.32;;
56116;SDS011;41989;45.356;20.392;2023-06-19T08:02:23;6.85;;;5.30;;
56116;SDS011;41989;45.356;20.392;2023-06-19T08:04:49;6.53;;;4.80;;
56116;SDS011;41989;45.356;20.392;2023-06-19T08:07:16;8.18;;;5.25;;
56116;SDS011;41989;45.356;20.392;2023-06-19T08:09:42;7.75;;;5.05;;
56116;SDS011;41989;45.356;20.392;2023-06-19T08:12:10;5.88;;;5.03;;
56116;SDS011;41989;45.356;20.392;2023-06-19T08:14:37;12.18;;;5.32;;
56116;SDS011;41989;45.356;20.392;2023-06-19T08:17:03;9.45;;;5.15;;
56116;SDS011;41989;45.356;20.392;2023-06-19T08:19:29;9.05;;;5.25;;
56116;SDS011;41989;45.356;20.392;2023-06-19T08:21:55;5.22;;;4.45;;
56116;SDS011;41989;45.356;20.392;2023-06-19T08:24:27;5.60;;;4.50;;
56116;SDS011;41989;45.356;20.392;2023-06-19T08:26:56;9.75;;;4.78;;
56116;SDS011;41989;45.356;20.392;2023-06-19T08:29:22;10.13;;;4.93;;
56116;SDS011;41989;45.356;20.392;2023-06-19T08:31:48;6.10;;;4.47;;
56116;SDS011;41989;45.356;20.392;2023-06-19T08:34:14;9.60;;;4.93;;
56116;SDS011;41989;45.356;20.392;2023-06-19T08:36:40;7.25;;;4.60;;
56116;SDS011;41989;45.356;20.392;2023-06-19T08:39:06;8.57;;;4.97;;
56116;SDS011;41989;45.356;20.392;2023-06-19T08:41:33;6.93;;;4.60;;
56116;SDS011;41989;45.356;20.392;2023-06-19T08:44:00;5.65;;;4.45;;
56116;SDS011;41989;45.356;20.392;2023-06-19T08:46:28;5.70;;;4.65;;
56116;SDS011;41989;45.356;20.392;2023-06-19T08:48:54;6.70;;;5.20;;
56116;SDS011;41989;45.356;20.392;2023-06-19T08:51:21;7.10;;;4.65;;
56116;SDS011;41989;45.356;20.392;2023-06-19T08:53:48;8.23;;;4.97;;
56116;SDS011;41989;45.356;20.392;2023-06-19T08:56:22;6.82;;;5.10;;
56116;SDS011;41989;45.356;20.392;2023-06-19T08:58:48;7.78;;;4.90;;
56116;SDS011;41989;45.356;20.392;2023-06-19T09:01:18;6.63;;;4.20;;
56116;SDS011;41989;45.356;20.392;2023-06-19T09:03:45;6.88;;;4.75;;
56116;SDS011;41989;45.356;20.392;2023-06-19T09:06:14;6.47;;;4.32;;
56116;SDS011;41989;45.356;20.392;2023-06-19T09:08:40;10.40;;;5.25;;
56116;SDS011;41989;45.356;20.392;2023-06-19T09:11:06;5.20;;;4.07;;
56116;SDS011;41989;45.356;20.392;2023-06-19T09:13:32;5.93;;;4.53;;
56116;SDS011;41989;45.356;20.392;2023-06-19T09:18:25;7.85;;;4.80;;
56116;SDS011;41989;45.356;20.392;2023-06-19T09:20:52;7.05;;;4.22;;
56116;SDS011;41989;45.356;20.392;2023-06-19T09:23:19;5.50;;;4.15;;
56116;SDS011;41989;45.356;20.392;2023-06-19T09:25:52;9.07;;;4.50;;
56116;SDS011;41989;45.356;20.392;2023-06-19T09:28:24;5.35;;;4.50;;
56116;SDS011;41989;45.356;20.392;2023-06-19T09:33:19;7.53;;;4.68;;
56116;SDS011;41989;45.356;20.392;2023-06-19T09:35:45;6.57;;;4.78;;
56116;SDS011;41989;45.356;20.392;2023-06-19T09:38:12;9.90;;;4.30;;
56116;SDS011;41989;45.356;20.392;2023-06-19T09:40:38;7.85;;;4.18;;
56116;SDS011;41989;45.356;20.392;2023-06-19T09:43:04;6.07;;;4.13;;
56116;SDS011;41989;45.356;20.392;2023-06-19T09:45:32;7.15;;;4.30;;
56116;SDS011;41989;45.356;20.392;2023-06-19T09:47:59;7.00;;;4.05;;
56116;SDS011;41989;45.356;20.392;2023-06-19T09:50:26;6.18;;;4.32;;
56116;SDS011;41989;45.356;20.392;2023-06-19T09:52:54;5.93;;;4.32;;
56116;SDS011;41989;45.356;20.392;2023-06-19T09:55:20;7.60;;;4.68;;
56116;SDS011;41989;45.356;20.392;2023-06-19T09:57:49;5.85;;;4.38;;
56116;SDS011;41989;45.356;20.392;2023-06-19T10:00:16;7.05;;;4.43;;
56116;SDS011;41989;45.356;20.392;2023-06-19T10:02:47;5.45;;;4.13;;
56116;SDS011;41989;45.356;20.392;2023-06-19T10:05:14;8.15;;;4.45;;
56116;SDS011;41989;45.356;20.392;2023-06-19T10:07:41;6.47;;;4.18;;
56116;SDS011;41989;45.356;20.392;2023-06-19T10:10:08;10.60;;;4.70;;
56116;SDS011;41989;45.356;20.392;2023-06-19T10:12:35;4.85;;;4.30;;
56116;SDS011;41989;45.356;20.392;2023-06-19T10:15:09;7.57;;;4.57;;
56116;SDS011;41989;45.356;20.392;2023-06-19T10:17:35;6.00;;;4.22;;
56116;SDS011;41989;45.356;20.392;2023-06-19T10:20:02;5.53;;;4.30;;
56116;SDS011;41989;45.356;20.392;2023-06-19T10:22:31;5.95;;;4.32;;
56116;SDS011;41989;45.356;20.392;2023-06-19T10:24:57;7.10;;;4.72;;
56116;SDS011;41989;45.356;20.392;2023-06-19T10:27:24;7.57;;;4.03;;
56116;SDS011;41989;45.356;20.392;2023-06-19T10:29:52;4.97;;;4.43;;
56116;SDS011;41989;45.356;20.392;2023-06-19T10:32:29;5.90;;;4.47;;
56116;SDS011;41989;45.356;20.392;2023-06-19T10:34:56;6.28;;;5.10;;
56116;SDS011;41989;45.356;20.392;2023-06-19T10:37:55;5.53;;;4.38;;
56116;SDS011;41989;45.356;20.392;2023-06-19T10:40:15;6.25;;;4.68;;
56116;SDS011;41989;45.356;20.392;2023-06-19T10:42:41;5.85;;;4.35;;
56116;SDS011;41989;45.356;20.392;2023-06-19T10:45:08;6.72;;;4.22;;
56116;SDS011;41989;45.356;20.392;2023-06-19T10:47:35;5.50;;;4.75;;
56116;SDS011;41989;45.356;20.392;2023-06-19T10:50:01;6.32;;;4.53;;
56116;SDS011;41989;45.356;20.392;2023-06-19T10:52:28;7.10;;;4.80;;
56116;SDS011;41989;45.356;20.392;2023-06-19T10:54:55;4.97;;;3.55;;
56116;SDS011;41989;45.356;20.392;2023-06-19T10:57:30;6.18;;;3.92;;
56116;SDS011;41989;45.356;20.392;2023-06-19T10:59:56;5.72;;;3.80;;
56116;SDS011;41989;45.356;20.392;2023-06-19T11:02:26;4.72;;;3.47;;
56116;SDS011;41989;45.356;20.392;2023-06-19T11:04:52;7.55;;;3.88;;
56116;SDS011;41989;45.356;20.392;2023-06-19T11:07:19;6.22;;;3.80;;
56116;SDS011;41989;45.356;20.392;2023-06-19T11:09:45;4.82;;;3.67;;
56116;SDS011;41989;45.356;20.392;2023-06-19T11:12:11;6.30;;;4.20;;
56116;SDS011;41989;45.356;20.392;2023-06-19T11:14:38;6.07;;;4.18;;
56116;SDS011;41989;45.356;20.392;2023-06-19T11:17:07;4.82;;;4.00;;
56116;SDS011;41989;45.356;20.392;2023-06-19T11:19:34;4.90;;;3.70;;
56116;SDS011;41989;45.356;20.392;2023-06-19T11:22:06;7.93;;;3.60;;
56116;SDS011;41989;45.356;20.392;2023-06-19T11:24:32;6.00;;;4.00;;
56116;SDS011;41989;45.356;20.392;2023-06-19T11:26:59;6.38;;;4.32;;
56116;SDS011;41989;45.356;20.392;2023-06-19T11:29:25;8.57;;;3.97;;
56116;SDS011;41989;45.356;20.392;2023-06-19T11:32:14;7.47;;;4.22;;
56116;SDS011;41989;45.356;20.392;2023-06-19T11:34:39;7.07;;;4.45;;
56116;SDS011;41989;45.356;20.392;2023-06-19T11:39:41;6.28;;;4.28;;
56116;SDS011;41989;45.356;20.392;2023-06-19T11:42:09;7.30;;;5.05;;
56116;SDS011;41989;45.356;20.392;2023-06-19T11:47:24;6.45;;;4.30;;
56116;SDS011;41989;45.356;20.392;2023-06-19T11:49:53;7.87;;;4.23;;
56116;SDS011;41989;45.356;20.392;2023-06-19T11:52:19;5.30;;;4.10;;
56116;SDS011;41989;45.356;20.392;2023-06-19T11:54:45;5.47;;;4.40;;
56116;SDS011;41989;45.356;20.392;2023-06-19T11:57:12;8.98;;;4.22;;
56116;SDS011;41989;45.356;20.392;2023-06-19T11:59:38;8.48;;;4.70;;
56116;SDS011;41989;45.356;20.392;2023-06-19T12:02:05;7.78;;;4.18;;
56116;SDS011;41989;45.356;20.392;2023-06-19T12:04:31;6.80;;;4.15;;
56116;SDS011;41989;45.356;20.392;2023-06-19T12:06:57;6.60;;;4.50;;
56116;SDS011;41989;45.356;20.392;2023-06-19T12:09:24;9.95;;;4.65;;
56116;SDS011;41989;45.356;20.392;2023-06-19T12:11:50;6.10;;;4.40;;
56116;SDS011;41989;45.356;20.392;2023-06-19T12:14:16;6.03;;;4.15;;
56116;SDS011;41989;45.356;20.392;2023-06-19T12:16:43;8.40;;;4.47;;
56116;SDS011;41989;45.356;20.392;2023-06-19T12:19:09;5.80;;;4.68;;
56116;SDS011;41989;45.356;20.392;2023-06-19T12:21:35;8.32;;;4.32;;
56116;SDS011;41989;45.356;20.392;2023-06-19T12:24:01;6.10;;;4.30;;
56116;SDS011;41989;45.356;20.392;2023-06-19T12:26:27;6.28;;;4.18;;
56116;SDS011;41989;45.356;20.392;2023-06-19T12:28:53;7.65;;;4.22;;
56116;SDS011;41989;45.356;20.392;2023-06-19T12:31:20;6.03;;;4.05;;
56116;SDS011;41989;45.356;20.392;2023-06-19T12:33:46;5.03;;;3.95;;
56116;SDS011;41989;45.356;20.392;2023-06-19T12:36:14;10.32;;;4.65;;
56116;SDS011;41989;45.356;20.392;2023-06-19T12:38:40;5.90;;;4.75;;
56116;SDS011;41989;45.356;20.392;2023-06-19T12:41:07;8.77;;;4.60;;
56116;SDS011;41989;45.356;20.392;2023-06-19T12:43:33;5.38;;;4.35;;
56116;SDS011;41989;45.356;20.392;2023-06-19T12:45:59;5.18;;;3.97;;
56116;SDS011;41989;45.356;20.392;2023-06-19T12:48:26;4.97;;;4.47;;
56116;SDS011;41989;45.356;20.392;2023-06-19T12:50:52;5.68;;;4.30;;
56116;SDS011;41989;45.356;20.392;2023-06-19T12:53:18;5.93;;;4.22;;
56116;SDS011;41989;45.356;20.392;2023-06-19T12:55:46;5.32;;;4.60;;
56116;SDS011;41989;45.356;20.392;2023-06-19T12:58:12;6.82;;;4.28;;
56116;SDS011;41989;45.356;20.392;2023-06-19T13:00:38;6.72;;;5.18;;
56116;SDS011;41989;45.356;20.392;2023-06-19T13:03:04;7.95;;;4.65;;
56116;SDS011;41989;45.356;20.392;2023-06-19T13:05:30;6.22;;;4.85;;
56116;SDS011;41989;45.356;20.392;2023-06-19T13:07:56;6.88;;;4.45;;
56116;SDS011;41989;45.356;20.392;2023-06-19T13:10:23;12.20;;;4.65;;
56116;SDS011;41989;45.356;20.392;2023-06-19T13:12:49;6.43;;;4.68;;
56116;SDS011;41989;45.356;20.392;2023-06-19T13:15:15;4.85;;;4.28;;
56116;SDS011;41989;45.356;20.392;2023-06-19T13:17:41;5.93;;;4.63;;
56116;SDS011;41989;45.356;20.392;2023-06-19T13:20:07;7.43;;;4.78;;
56116;SDS011;41989;45.356;20.392;2023-06-19T13:22:35;6.40;;;4.40;;
56116;SDS011;41989;45.356;20.392;2023-06-19T13:25:01;6.22;;;4.35;;
56116;SDS011;41989;45.356;20.392;2023-06-19T13:27:27;10.55;;;4.75;;
56116;SDS011;41989;45.356;20.392;2023-06-19T13:29:54;8.75;;;4.65;;
56116;SDS011;41989;45.356;20.392;2023-06-19T13:32:20;6.68;;;4.47;;
56116;SDS011;41989;45.356;20.392;2023-06-19T13:34:46;9.38;;;4.72;;
56116;SDS011;41989;45.356;20.392;2023-06-19T13:37:15;4.80;;;4.30;;
56116;SDS011;41989;45.356;20.392;2023-06-19T13:39:41;7.20;;;4.43;;
56116;SDS011;41989;45.356;20.392;2023-06-19T13:42:08;6.10;;;4.80;;
56116;SDS011;41989;45.356;20.392;2023-06-19T13:44:34;8.60;;;4.60;;
56116;SDS011;41989;45.356;20.392;2023-06-19T13:47:00;6.82;;;5.00;;
56116;SDS011;41989;45.356;20.392;2023-06-19T13:49:26;5.65;;;4.50;;
56116;SDS011;41989;45.356;20.392;2023-06-19T13:51:52;5.85;;;4.72;;
56116;SDS011;41989;45.356;20.392;2023-06-19T13:54:19;8.10;;;5.00;;
56116;SDS011;41989;45.356;20.392;2023-06-19T13:56:47;10.73;;;5.00;;
56116;SDS011;41989;45.356;20.392;2023-06-19T13:59:14;7.43;;;4.38;;
56116;SDS011;41989;45.356;20.392;2023-06-19T14:01:41;8.57;;;4.72;;
56116;SDS011;41989;45.356;20.392;2023-06-19T14:04:07;8.07;;;4.45;;
56116;SDS011;41989;45.356;20.392;2023-06-19T14:06:37;7.97;;;4.95;;
56116;SDS011;41989;45.356;20.392;2023-06-19T14:09:03;10.60;;;4.88;;
56116;SDS011;41989;45.356;20.392;2023-06-19T14:11:29;5.85;;;4.70;;
56116;SDS011;41989;45.356;20.392;2023-06-19T14:13:57;5.25;;;4.40;;
56116;SDS011;41989;45.356;20.392;2023-06-19T14:16:23;8.13;;;4.70;;
56116;SDS011;41989;45.356;20.392;2023-06-19T14:18:49;6.55;;;4.90;;
56116;SDS011;41989;45.356;20.392;2023-06-19T14:21:15;7.20;;;4.53;;
56116;SDS011;41989;45.356;20.392;2023-06-19T14:23:41;8.52;;;4.93;;
56116;SDS011;41989;45.356;20.392;2023-06-19T14:26:10;10.35;;;5.47;;
56116;SDS011;41989;45.356;20.392;2023-06-19T14:28:37;8.40;;;4.88;;
56116;SDS011;41989;45.356;20.392;2023-06-19T14:31:04;7.85;;;4.97;;
56116;SDS011;41989;45.356;20.392;2023-06-19T14:33:30;5.85;;;4.45;;
56116;SDS011;41989;45.356;20.392;2023-06-19T14:35:58;8.02;;;5.10;;
56116;SDS011;41989;45.356;20.392;2023-06-19T14:38:24;5.35;;;4.70;;
56116;SDS011;41989;45.356;20.392;2023-06-19T14:40:56;8.25;;;5.07;;
56116;SDS011;41989;45.356;20.392;2023-06-19T14:43:27;7.63;;;4.70;;
56116;SDS011;41989;45.356;20.392;2023-06-19T14:45:53;9.65;;;5.32;;
56116;SDS011;41989;45.356;20.392;2023-06-19T14:48:20;6.85;;;5.18;;
56116;SDS011;41989;45.356;20.392;2023-06-19T14:50:46;10.57;;;5.18;;
56116;SDS011;41989;45.356;20.392;2023-06-19T14:53:12;6.97;;;5.28;;